createdAt,value
2018-07-08T00:00:19.760Z,0.00
2018-07-08T00:01:19.763Z,0.00
2018-07-08T00:02:19.764Z,0.00
2018-07-08T00:03:19.756Z,0.00
2018-07-08T00:04:19.753Z,0.00
2018-07-08T00:05:19.758Z,0.00
2018-07-08T00:06:19.756Z,0.00
2018-07-08T00:07:19.758Z,0.00
2018-07-08T00:08:19.756Z,0.00
2018-07-08T00:09:19.747Z,0.00
2018-07-08T00:10:19.746Z,0.00
2018-07-08T00:11:19.744Z,0.00
2018-07-08T00:12:19.742Z,0.00
2018-07-08T00:13:19.744Z,0.00
2018-07-08T00:14:19.743Z,0.00
2018-07-08T00:15:19.741Z,0.00
2018-07-08T00:16:19.738Z,0.00
2018-07-08T00:17:19.733Z,0.00
2018-07-08T00:18:19.731Z,0.00
2018-07-08T00:19:19.734Z,0.00
2018-07-08T00:20:19.735Z,0.00
2018-07-08T00:21:19.725Z,0.00
2018-07-08T00:22:19.726Z,0.00
2018-07-08T00:23:19.722Z,0.00
2018-07-08T00:24:19.723Z,0.00
2018-07-08T00:25:19.723Z,0.00
2018-07-08T00:26:19.724Z,0.00
2018-07-08T00:27:19.721Z,0.00
2018-07-08T00:28:19.718Z,0.00
2018-07-08T00:29:19.711Z,0.00
2018-07-08T00:30:19.710Z,0.00
2018-07-08T00:31:19.711Z,0.00
2018-07-08T00:32:19.705Z,0.00
2018-07-08T00:33:19.709Z,0.00
2018-07-08T00:34:19.708Z,0.00
2018-07-08T00:35:19.701Z,0.00
2018-07-08T00:36:19.699Z,0.00
2018-07-08T00:37:19.700Z,0.00
2018-07-08T00:38:19.699Z,0.00
2018-07-08T00:39:19.699Z,0.00
2018-07-08T00:40:19.696Z,0.00
2018-07-08T00:41:19.691Z,0.00
2018-07-08T00:42:19.687Z,0.00
2018-07-08T00:43:19.685Z,0.00
2018-07-08T00:44:19.683Z,0.00
2018-07-08T00:45:19.686Z,0.00
2018-07-08T00:46:19.686Z,0.00
2018-07-08T00:47:19.681Z,0.00
2018-07-08T00:48:19.678Z,0.00
2018-07-08T00:49:19.672Z,0.00
2018-07-08T00:50:19.670Z,0.00
2018-07-08T00:51:19.672Z,0.00
2018-07-08T00:52:19.671Z,0.00
2018-07-08T00:53:19.663Z,0.00
2018-07-08T00:54:19.661Z,0.00
2018-07-08T00:55:19.661Z,0.00
2018-07-08T00:56:19.658Z,0.00
2018-07-08T00:57:19.660Z,0.00
2018-07-08T00:58:19.658Z,0.00
2018-07-08T00:59:19.655Z,0.00
2018-07-08T01:00:19.652Z,0.00
2018-07-08T01:01:19.648Z,0.00
2018-07-08T01:02:19.644Z,0.00
2018-07-08T01:03:19.642Z,0.00
2018-07-08T01:04:19.639Z,0.00
2018-07-08T01:05:19.642Z,0.00
2018-07-08T01:06:19.641Z,0.00
2018-07-08T01:07:19.637Z,0.00
2018-07-08T01:08:19.631Z,0.00
2018-07-08T01:09:19.634Z,0.00
2018-07-08T01:10:19.633Z,0.00
2018-07-08T01:11:19.629Z,0.00
2018-07-08T01:12:19.625Z,0.00
2018-07-08T01:13:19.622Z,0.00
2018-07-08T01:14:19.616Z,0.00
2018-07-08T01:15:19.615Z,0.00
2018-07-08T01:16:19.611Z,0.00
2018-07-08T01:17:19.615Z,0.00
2018-07-08T01:18:19.611Z,0.00
2018-07-08T01:19:19.611Z,0.00
2018-07-08T01:20:19.608Z,0.00
2018-07-08T01:21:19.599Z,0.00
2018-07-08T01:22:19.599Z,0.00
2018-07-08T01:23:19.607Z,0.00
2018-07-08T01:24:19.599Z,0.00
2018-07-08T01:25:19.590Z,0.00
2018-07-08T01:26:19.587Z,0.00
2018-07-08T01:27:19.585Z,0.00
2018-07-08T01:28:19.586Z,0.00
2018-07-08T01:29:19.586Z,0.00
2018-07-08T01:30:19.582Z,0.00
2018-07-08T01:31:19.582Z,0.00
2018-07-08T01:32:19.579Z,0.00
2018-07-08T01:33:19.574Z,0.00
2018-07-08T01:34:19.567Z,0.00
2018-07-08T01:35:19.567Z,0.00
2018-07-08T01:36:19.563Z,0.00
2018-07-08T01:37:19.567Z,0.00
2018-07-08T01:38:19.564Z,0.00
2018-07-08T01:39:19.559Z,0.00
2018-07-08T01:40:19.553Z,0.00
2018-07-08T01:41:19.559Z,0.00
2018-07-08T01:42:19.556Z,0.00
2018-07-08T01:43:19.551Z,0.00
2018-07-08T01:44:19.581Z,0.00
2018-07-08T01:45:19.541Z,0.00
2018-07-08T01:46:19.538Z,0.00
2018-07-08T01:47:19.537Z,0.00
2018-07-08T01:48:19.533Z,0.00
2018-07-08T01:49:19.535Z,0.00
2018-07-08T01:50:19.533Z,0.00
2018-07-08T01:51:19.531Z,0.00
2018-07-08T01:52:19.527Z,0.00
2018-07-08T01:53:19.521Z,0.00
2018-07-08T01:54:19.523Z,0.00
2018-07-08T01:55:19.520Z,0.00
2018-07-08T01:56:19.519Z,0.00
2018-07-08T01:57:19.509Z,0.00
2018-07-08T01:58:19.508Z,0.00
2018-07-08T01:59:19.505Z,0.00
2018-07-08T02:00:19.500Z,0.00
2018-07-08T02:01:19.504Z,0.00
2018-07-08T02:02:19.502Z,0.00
2018-07-08T02:03:19.498Z,0.00
2018-07-08T02:04:19.500Z,0.00
2018-07-08T02:05:19.487Z,0.00
2018-07-08T02:06:19.485Z,0.00
2018-07-08T02:07:19.484Z,0.00
2018-07-08T02:08:19.479Z,0.00
2018-07-08T02:09:19.482Z,0.00
2018-07-08T02:10:19.481Z,0.00
2018-07-08T02:11:19.472Z,0.00
2018-07-08T02:12:19.468Z,0.00
2018-07-08T02:13:19.470Z,0.00
2018-07-08T02:14:19.470Z,0.00
2018-07-08T02:15:19.465Z,0.00
2018-07-08T02:16:19.461Z,0.00
2018-07-08T02:17:19.461Z,0.00
2018-07-08T02:18:19.451Z,0.00
2018-07-08T02:19:19.449Z,0.00
2018-07-08T02:20:19.447Z,0.00
2018-07-08T02:21:19.449Z,0.00
2018-07-08T02:22:19.446Z,0.00
2018-07-08T02:23:19.444Z,0.00
2018-07-08T02:24:19.440Z,0.00
2018-07-08T02:25:19.431Z,0.00
2018-07-08T02:26:19.429Z,0.00
2018-07-08T02:27:19.433Z,0.00
2018-07-08T02:28:19.430Z,0.00
2018-07-08T02:29:19.420Z,0.00
2018-07-08T02:30:19.416Z,0.00
2018-07-08T02:31:19.414Z,0.00
2018-07-08T02:32:19.413Z,0.00
2018-07-08T02:33:19.419Z,0.00
2018-07-08T02:34:19.411Z,0.00
2018-07-08T02:35:19.406Z,0.00
2018-07-08T02:36:19.403Z,0.00
2018-07-08T02:37:19.398Z,0.00
2018-07-08T02:38:19.394Z,0.00
2018-07-08T02:39:19.394Z,0.00
2018-07-08T02:40:19.386Z,0.00
2018-07-08T02:41:19.389Z,0.00
2018-07-08T02:42:19.387Z,4.00
2018-07-08T02:43:19.381Z,4.00
2018-07-08T02:44:19.377Z,4.00
2018-07-08T02:45:19.379Z,0.00
2018-07-08T02:46:19.376Z,0.00
2018-07-08T02:47:19.372Z,4.00
2018-07-08T02:48:19.366Z,4.00
2018-07-08T02:49:19.361Z,0.00
2018-07-08T02:50:19.356Z,4.00
2018-07-08T02:51:19.357Z,4.00
2018-07-08T02:52:19.350Z,4.00
2018-07-08T02:53:19.359Z,8.00
2018-07-08T02:54:19.348Z,4.00
2018-07-08T02:55:19.346Z,8.00
2018-07-08T02:56:19.342Z,8.00
2018-07-08T02:57:19.333Z,8.00
2018-07-08T02:58:19.333Z,8.00
2018-07-08T02:59:19.333Z,12.00
2018-07-08T03:00:19.330Z,12.00
2018-07-08T03:01:19.323Z,16.00
2018-07-08T03:02:19.317Z,16.00
2018-07-08T03:03:19.317Z,20.00
2018-07-08T03:04:19.315Z,24.00
2018-07-08T03:05:19.312Z,24.00
2018-07-08T03:06:19.308Z,28.00
2018-07-08T03:07:19.307Z,32.00
2018-07-08T03:08:19.302Z,32.00
2018-07-08T03:09:19.336Z,36.00
2018-07-08T03:10:19.295Z,40.00
2018-07-08T03:11:19.287Z,44.00
2018-07-08T03:12:19.283Z,52.00
2018-07-08T03:13:19.287Z,56.00
2018-07-08T03:14:19.282Z,64.00
2018-07-08T03:15:19.274Z,72.00
2018-07-08T03:16:19.270Z,80.00
2018-07-08T03:17:19.271Z,84.00
2018-07-08T03:18:19.272Z,96.00
2018-07-08T03:19:19.266Z,104.00
2018-07-08T03:20:19.263Z,112.00
2018-07-08T03:21:19.254Z,124.00
2018-07-08T03:22:19.254Z,136.00
2018-07-08T03:23:19.246Z,144.00
2018-07-08T03:24:19.244Z,156.00
2018-07-08T03:25:19.245Z,168.00
2018-07-08T03:26:19.244Z,180.00
2018-07-08T03:27:19.236Z,200.00
2018-07-08T03:28:19.232Z,212.00
2018-07-08T03:29:19.231Z,228.00
2018-07-08T03:30:19.222Z,248.00
2018-07-08T03:31:19.223Z,268.00
2018-07-08T03:32:19.219Z,284.00
2018-07-08T03:33:19.241Z,304.00
2018-07-08T03:34:19.210Z,328.00
2018-07-08T03:35:19.205Z,352.00
2018-07-08T03:36:19.202Z,376.00
2018-07-08T03:37:19.203Z,404.00
2018-07-08T03:38:19.200Z,424.00
2018-07-08T03:39:19.195Z,448.00
2018-07-08T03:40:19.193Z,480.00
2018-07-08T03:41:19.184Z,508.00
2018-07-08T03:42:19.185Z,532.00
2018-07-08T03:43:19.177Z,564.00
2018-07-08T03:44:19.174Z,592.00
2018-07-08T03:45:19.173Z,624.00
2018-07-08T03:46:19.171Z,652.00
2018-07-08T03:47:19.163Z,684.00
2018-07-08T03:48:19.162Z,720.00
2018-07-08T03:49:19.159Z,752.00
2018-07-08T03:50:19.157Z,788.00
2018-07-08T03:51:19.155Z,820.00
2018-07-08T03:52:19.151Z,848.00
2018-07-08T03:53:19.142Z,884.00
2018-07-08T03:54:19.139Z,920.00
2018-07-08T03:55:19.137Z,952.00
2018-07-08T03:56:19.132Z,984.00
2018-07-08T03:57:19.134Z,1020.00
2018-07-08T03:58:19.132Z,1056.00
2018-07-08T03:59:19.127Z,1092.00
2018-07-08T04:00:19.122Z,1128.00
2018-07-08T04:01:19.114Z,1164.00
2018-07-08T04:02:19.114Z,1200.00
2018-07-08T04:03:19.115Z,1240.00
2018-07-08T04:04:19.108Z,1280.00
2018-07-08T04:05:19.099Z,1324.00
2018-07-08T04:06:19.096Z,1364.00
2018-07-08T04:07:19.093Z,1408.00
2018-07-08T04:08:19.092Z,1448.00
2018-07-08T04:09:19.091Z,1492.00
2018-07-08T04:10:19.090Z,1532.00
2018-07-08T04:11:19.083Z,1572.00
2018-07-08T04:12:19.078Z,1616.00
2018-07-08T04:13:19.071Z,1656.00
2018-07-08T04:14:19.069Z,1688.00
2018-07-08T04:15:19.132Z,1728.00
2018-07-08T04:16:19.062Z,1764.00
2018-07-08T04:17:19.064Z,1804.00
2018-07-08T04:18:19.059Z,1840.00
2018-07-08T04:19:19.052Z,1876.00
2018-07-08T04:20:19.048Z,1912.00
2018-07-08T04:21:19.050Z,1948.00
2018-07-08T04:22:19.045Z,1980.00
2018-07-08T04:23:19.042Z,2008.00
2018-07-08T04:24:19.038Z,2044.00
2018-07-08T04:25:19.031Z,2072.00
2018-07-08T04:26:19.028Z,2108.00
2018-07-08T04:27:19.025Z,2144.00
2018-07-08T04:28:19.021Z,2176.00
2018-07-08T04:29:19.023Z,2212.00
2018-07-08T04:30:19.066Z,2264.00
2018-07-08T04:31:19.019Z,2316.00
2018-07-08T04:32:19.013Z,2360.00
2018-07-08T04:33:19.005Z,2412.00
2018-07-08T04:34:19.006Z,2488.00
2018-07-08T04:35:19.005Z,2644.00
2018-07-08T04:36:19.000Z,2908.00
2018-07-08T04:37:18.995Z,2952.00
2018-07-08T04:38:18.990Z,2764.00
2018-07-08T04:39:18.996Z,2652.00
2018-07-08T04:40:18.985Z,2660.00
2018-07-08T04:41:18.986Z,2704.00
2018-07-08T04:42:18.982Z,2744.00
2018-07-08T04:43:18.980Z,2784.00
2018-07-08T04:44:18.975Z,2824.00
2018-07-08T04:45:18.969Z,2864.00
2018-07-08T04:46:18.966Z,2908.00
2018-07-08T04:47:18.963Z,2952.00
2018-07-08T04:48:18.963Z,2996.00
2018-07-08T04:49:19.022Z,3044.00
2018-07-08T04:50:18.959Z,3096.00
2018-07-08T04:51:18.952Z,3148.00
2018-07-08T04:52:18.949Z,3204.00
2018-07-08T04:53:18.952Z,3252.00
2018-07-08T04:54:18.949Z,3304.00
2018-07-08T04:55:18.946Z,3360.00
2018-07-08T04:56:18.941Z,3468.00
2018-07-08T04:57:18.935Z,3672.00
2018-07-08T04:58:18.932Z,4600.00
2018-07-08T04:59:18.931Z,7768.00
2018-07-08T05:00:18.926Z,10968.00
2018-07-08T05:01:18.929Z,12996.00
2018-07-08T05:02:18.926Z,13712.00
2018-07-08T05:03:18.925Z,14172.00
2018-07-08T05:04:18.922Z,14784.00
2018-07-08T05:05:18.916Z,15232.00
2018-07-08T05:06:18.914Z,15584.00
2018-07-08T05:07:18.917Z,15968.00
2018-07-08T05:08:18.915Z,16416.00
2018-07-08T05:09:18.909Z,16832.00
2018-07-08T05:10:18.908Z,17216.00
2018-07-08T05:11:18.907Z,17568.00
2018-07-08T05:12:18.906Z,17952.00
2018-07-08T05:13:18.910Z,18272.00
2018-07-08T05:14:18.910Z,18560.00
2018-07-08T05:15:18.912Z,18816.00
2018-07-08T05:16:18.911Z,19168.00
2018-07-08T05:17:18.909Z,19392.00
2018-07-08T05:18:18.909Z,19648.00
2018-07-08T05:19:18.910Z,19872.00
2018-07-08T05:20:18.956Z,20192.00
2018-07-08T05:21:18.919Z,20416.00
2018-07-08T05:22:18.921Z,20704.00
2018-07-08T05:23:18.925Z,20928.00
2018-07-08T05:24:18.919Z,21152.00
2018-07-08T05:25:18.927Z,21440.00
2018-07-08T05:26:18.930Z,21632.00
2018-07-08T05:27:18.934Z,21888.00
2018-07-08T05:28:18.940Z,22048.00
2018-07-08T05:29:18.935Z,22336.00
2018-07-08T05:30:18.941Z,22656.00
2018-07-08T05:31:18.944Z,22848.00
2018-07-08T05:32:18.946Z,23072.00
2018-07-08T05:33:18.956Z,23296.00
2018-07-08T05:34:18.959Z,23520.00
2018-07-08T05:35:18.964Z,23712.00
2018-07-08T05:36:18.968Z,24000.00
2018-07-08T05:37:18.972Z,24160.00
2018-07-08T05:38:18.975Z,24416.00
2018-07-08T05:39:18.984Z,24512.00
2018-07-08T05:40:18.987Z,24672.00
2018-07-08T05:41:18.988Z,24896.00
2018-07-08T05:42:18.993Z,25152.00
2018-07-08T05:43:19.003Z,25376.00
2018-07-08T05:44:19.004Z,25568.00
2018-07-08T05:45:19.016Z,25632.00
2018-07-08T05:46:19.021Z,25760.00
2018-07-08T05:47:19.028Z,25888.00
2018-07-08T05:48:19.031Z,25984.00
2018-07-08T05:49:19.033Z,26144.00
2018-07-08T05:50:19.118Z,26336.00
2018-07-08T05:51:19.047Z,26656.00
2018-07-08T05:52:19.051Z,26688.00
2018-07-08T05:53:19.061Z,26720.00
2018-07-08T05:54:19.068Z,27136.00
2018-07-08T05:55:19.070Z,27328.00
2018-07-08T05:56:19.076Z,27456.00
2018-07-08T05:57:19.086Z,27616.00
2018-07-08T05:58:19.093Z,27648.00
2018-07-08T05:59:19.100Z,27392.00
2018-07-08T06:00:19.106Z,27392.00
2018-07-08T06:01:19.108Z,28320.00
2018-07-08T06:02:19.117Z,28192.00
2018-07-08T06:03:19.122Z,28288.00
2018-07-08T06:04:19.127Z,28512.00
2018-07-08T06:05:19.141Z,28736.00
2018-07-08T06:06:19.147Z,28128.00
2018-07-08T06:07:19.153Z,28544.00
2018-07-08T06:08:19.160Z,28896.00
2018-07-08T06:09:19.162Z,29408.00
2018-07-08T06:10:19.170Z,29152.00
2018-07-08T06:11:19.182Z,29568.00
2018-07-08T06:12:19.188Z,29376.00
2018-07-08T06:13:19.190Z,30080.00
2018-07-08T06:14:19.198Z,29920.00
2018-07-08T06:15:19.231Z,30304.00
2018-07-08T06:16:19.214Z,30240.00
2018-07-08T06:17:19.224Z,30848.00
2018-07-08T06:18:19.232Z,31008.00
2018-07-08T06:19:19.240Z,30592.00
2018-07-08T06:20:19.265Z,30432.00
2018-07-08T06:21:19.248Z,30464.00
2018-07-08T06:22:19.258Z,31040.00
2018-07-08T06:23:19.265Z,30912.00
2018-07-08T06:24:19.275Z,31072.00
2018-07-08T06:25:19.285Z,31392.00
2018-07-08T06:26:19.294Z,33152.00
2018-07-08T06:27:19.296Z,32480.00
2018-07-08T06:28:19.304Z,32352.00
2018-07-08T06:29:19.317Z,32608.00
2018-07-08T06:30:19.324Z,32480.00
2018-07-08T06:31:19.336Z,32256.00
2018-07-08T06:32:19.339Z,18368.00
2018-07-08T06:33:19.344Z,32448.00
2018-07-08T06:34:19.357Z,33056.00
2018-07-08T06:35:19.361Z,25312.00
2018-07-08T06:36:19.369Z,33184.00
2018-07-08T06:37:19.383Z,32960.00
2018-07-08T06:38:19.393Z,33120.00
2018-07-08T06:39:19.476Z,34176.00
2018-07-08T06:40:19.417Z,33696.00
2018-07-08T06:41:19.415Z,33952.00
2018-07-08T06:42:19.422Z,33568.00
2018-07-08T06:43:19.436Z,34400.00
2018-07-08T06:44:19.455Z,34208.00
2018-07-08T06:45:19.452Z,34496.00
2018-07-08T06:46:19.461Z,34752.00
2018-07-08T06:47:19.470Z,35104.00
2018-07-08T06:48:19.482Z,33216.00
2018-07-08T06:49:19.496Z,34272.00
2018-07-08T06:50:19.504Z,34592.00
2018-07-08T06:51:19.515Z,34880.00
2018-07-08T06:52:19.523Z,34912.00
2018-07-08T06:53:19.530Z,34784.00
2018-07-08T06:54:19.540Z,35360.00
2018-07-08T06:55:19.551Z,35680.00
2018-07-08T06:56:19.561Z,35968.00
2018-07-08T06:57:19.577Z,36576.00
2018-07-08T06:58:19.588Z,36896.00
2018-07-08T06:59:19.594Z,37088.00
2018-07-08T07:00:19.603Z,37024.00
2018-07-08T07:01:19.618Z,38080.00
2018-07-08T07:02:19.632Z,38368.00
2018-07-08T07:03:19.642Z,39840.00
2018-07-08T07:04:19.651Z,41248.00
2018-07-08T07:05:19.658Z,43072.00
2018-07-08T07:06:19.670Z,46336.00
2018-07-08T07:07:19.681Z,49792.00
2018-07-08T07:08:19.692Z,54400.00
2018-07-08T07:09:19.707Z,59840.00
2018-07-08T07:10:19.720Z,67104.00
2018-07-08T07:11:19.733Z,69184.00
2018-07-08T07:12:19.743Z,67232.00
2018-07-08T07:13:19.751Z,64672.00
2018-07-08T07:14:19.762Z,66336.00
2018-07-08T07:15:19.781Z,61600.00
2018-07-08T07:16:19.790Z,62496.00
2018-07-08T07:17:19.820Z,61664.00
2018-07-08T07:18:19.810Z,64992.00
2018-07-08T07:19:19.824Z,68992.00
2018-07-08T07:20:19.835Z,74368.00
2018-07-08T07:21:19.853Z,79712.00
2018-07-08T07:22:19.865Z,81504.00
2018-07-08T07:23:19.880Z,84928.00
2018-07-08T07:24:19.892Z,85376.00
2018-07-08T07:25:19.899Z,85472.00
2018-07-08T07:26:19.914Z,92896.00
2018-07-08T07:27:19.926Z,98496.00
2018-07-08T07:28:19.939Z,100064.00
2018-07-08T07:29:19.958Z,99936.00
2018-07-08T07:30:19.978Z,95904.00
2018-07-08T07:31:19.980Z,93600.00
2018-07-08T07:32:19.994Z,99360.00
2018-07-08T07:33:20.013Z,98048.00
2018-07-08T07:34:20.026Z,97632.00
2018-07-08T07:35:20.040Z,103008.00
2018-07-08T07:36:20.051Z,108384.00
2018-07-08T07:37:20.121Z,105824.00
2018-07-08T07:38:20.074Z,99200.00
2018-07-08T07:39:20.089Z,98304.00
2018-07-08T07:40:20.104Z,101056.00
2018-07-08T07:41:20.122Z,98272.00
2018-07-08T07:42:20.138Z,90208.00
2018-07-08T07:43:20.145Z,86976.00
2018-07-08T07:44:20.158Z,84864.00
2018-07-08T07:45:20.177Z,83456.00
2018-07-08T07:46:20.181Z,81920.00
2018-07-08T07:47:20.200Z,79520.00
2018-07-08T07:48:20.212Z,82336.00
2018-07-08T07:49:20.223Z,81632.00
2018-07-08T07:50:20.236Z,76832.00
2018-07-08T07:51:20.291Z,76736.00
2018-07-08T07:52:20.262Z,79776.00
2018-07-08T07:53:20.282Z,84896.00
2018-07-08T07:54:20.296Z,87872.00
2018-07-08T07:55:20.310Z,79456.00
2018-07-08T07:56:20.323Z,68064.00
2018-07-08T07:57:20.332Z,70496.00
2018-07-08T07:58:20.348Z,72992.00
2018-07-08T07:59:20.364Z,70688.00
2018-07-08T08:00:20.375Z,69152.00
2018-07-08T08:01:20.398Z,68992.00
2018-07-08T08:02:20.409Z,69280.00
2018-07-08T08:03:20.419Z,69408.00
2018-07-08T08:04:20.434Z,69696.00
2018-07-08T08:05:20.452Z,70176.00
2018-07-08T08:06:20.467Z,71552.00
2018-07-08T08:07:20.483Z,72128.00
2018-07-08T08:08:20.525Z,70720.00
2018-07-08T08:09:20.508Z,66816.00
2018-07-08T08:10:20.524Z,64736.00
2018-07-08T08:11:20.537Z,68704.00
2018-07-08T08:12:20.551Z,70944.00
2018-07-08T08:13:20.573Z,69632.00
2018-07-08T08:14:20.589Z,67392.00
2018-07-08T08:15:20.604Z,64928.00
2018-07-08T08:16:20.616Z,64160.00
2018-07-08T08:17:20.632Z,65728.00
2018-07-08T08:18:20.644Z,64704.00
2018-07-08T08:19:20.668Z,64512.00
2018-07-08T08:20:20.679Z,65888.00
2018-07-08T08:21:20.692Z,65760.00
2018-07-08T08:22:20.708Z,65376.00
2018-07-08T08:23:20.722Z,64160.00
2018-07-08T08:24:20.738Z,62240.00
2018-07-08T08:25:20.762Z,62656.00
2018-07-08T08:26:20.849Z,63872.00
2018-07-08T08:27:20.791Z,66048.00
2018-07-08T08:28:20.807Z,66912.00
2018-07-08T08:29:20.818Z,65056.00
2018-07-08T08:30:20.835Z,62976.00
2018-07-08T08:31:20.851Z,64256.00
2018-07-08T08:32:20.867Z,59712.00
2018-07-08T08:33:20.888Z,56640.00
2018-07-08T08:34:20.905Z,52320.00
2018-07-08T08:35:20.917Z,51808.00
2018-07-08T08:36:20.933Z,52608.00
2018-07-08T08:37:20.955Z,52672.00
2018-07-08T08:38:20.972Z,53824.00
2018-07-08T08:39:20.987Z,55872.00
2018-07-08T08:40:21.004Z,56832.00
2018-07-08T08:41:21.015Z,54112.00
2018-07-08T08:42:21.032Z,52832.00
2018-07-08T08:43:21.049Z,54400.00
2018-07-08T08:44:21.063Z,59200.00
2018-07-08T08:45:21.085Z,66016.00
2018-07-08T08:46:21.100Z,68032.00
2018-07-08T08:47:21.118Z,60928.00
2018-07-08T08:48:21.131Z,54720.00
2018-07-08T08:49:21.143Z,49728.00
2018-07-08T08:50:21.160Z,47520.00
2018-07-08T08:51:21.181Z,47872.00
2018-07-08T08:52:21.263Z,46624.00
2018-07-08T08:53:21.209Z,45056.00
2018-07-08T08:54:21.224Z,44288.00
2018-07-08T08:55:21.239Z,43840.00
2018-07-08T08:56:21.257Z,44160.00
2018-07-08T08:57:21.277Z,44320.00
2018-07-08T08:58:21.334Z,44384.00
2018-07-08T08:59:21.313Z,44800.00
2018-07-08T09:00:21.326Z,44864.00
2018-07-08T09:01:21.340Z,45984.00
2018-07-08T09:02:21.357Z,45696.00
2018-07-08T09:03:21.375Z,46144.00
2018-07-08T09:04:21.391Z,46912.00
2018-07-08T09:05:21.412Z,46496.00
2018-07-08T09:06:21.431Z,46752.00
2018-07-08T09:07:21.443Z,46720.00
2018-07-08T09:08:21.459Z,47072.00
2018-07-08T09:09:21.481Z,47136.00
2018-07-08T09:10:21.498Z,47072.00
2018-07-08T09:11:21.516Z,47392.00
2018-07-08T09:12:21.533Z,48064.00
2018-07-08T09:13:21.545Z,47744.00
2018-07-08T09:14:21.562Z,48064.00
2018-07-08T09:15:21.580Z,48864.00
2018-07-08T09:16:21.597Z,48608.00
2018-07-08T09:17:21.700Z,48992.00
2018-07-08T09:18:21.636Z,48864.00
2018-07-08T09:19:21.655Z,48960.00
2018-07-08T09:20:21.672Z,49376.00
2018-07-08T09:21:21.686Z,49376.00
2018-07-08T09:22:21.703Z,48992.00
2018-07-08T09:23:21.725Z,49088.00
2018-07-08T09:24:21.743Z,49088.00
2018-07-08T09:25:21.756Z,49280.00
2018-07-08T09:26:21.777Z,48256.00
2018-07-08T09:27:21.793Z,48576.00
2018-07-08T09:28:21.808Z,48160.00
2018-07-08T09:29:21.841Z,47840.00
2018-07-08T09:30:21.847Z,47328.00
2018-07-08T09:31:21.865Z,46656.00
2018-07-08T09:32:21.881Z,46912.00
2018-07-08T09:33:21.894Z,46496.00
2018-07-08T09:34:21.913Z,45984.00
2018-07-08T09:35:21.929Z,45600.00
2018-07-08T09:36:21.946Z,45312.00
2018-07-08T09:37:21.968Z,45248.00
2018-07-08T09:38:21.986Z,45088.00
2018-07-08T09:39:22.006Z,44896.00
2018-07-08T09:40:22.017Z,45056.00
2018-07-08T09:41:22.040Z,44736.00
2018-07-08T09:42:22.057Z,44800.00
2018-07-08T09:43:22.075Z,44768.00
2018-07-08T09:44:22.094Z,44480.00
2018-07-08T09:45:22.107Z,45312.00
2018-07-08T09:46:22.123Z,51456.00
2018-07-08T09:47:22.141Z,74048.00
2018-07-08T09:48:22.160Z,98592.00
2018-07-08T09:49:22.182Z,99776.00
2018-07-08T09:50:22.203Z,91520.00
2018-07-08T09:51:22.218Z,88608.00
2018-07-08T09:52:22.235Z,88096.00
2018-07-08T09:53:22.251Z,88864.00
2018-07-08T09:54:22.267Z,89088.00
2018-07-08T09:55:22.296Z,89536.00
2018-07-08T09:56:22.309Z,86880.00
2018-07-08T09:57:22.324Z,87584.00
2018-07-08T09:58:22.343Z,89760.00
2018-07-08T09:59:22.363Z,89824.00
2018-07-08T10:00:22.381Z,86880.00
2018-07-08T10:01:22.404Z,87936.00
2018-07-08T10:02:22.424Z,90336.00
2018-07-08T10:03:22.444Z,91232.00
2018-07-08T10:04:22.461Z,87744.00
2018-07-08T10:05:22.474Z,82272.00
2018-07-08T10:06:22.492Z,84128.00
2018-07-08T10:07:22.512Z,82944.00
2018-07-08T10:08:22.530Z,81760.00
2018-07-08T10:09:22.553Z,80640.00
2018-07-08T10:10:22.572Z,82720.00
2018-07-08T10:11:22.587Z,87552.00
2018-07-08T10:12:22.603Z,86816.00
2018-07-08T10:13:22.627Z,87168.00
2018-07-08T10:14:22.646Z,86496.00
2018-07-08T10:15:22.666Z,86944.00
2018-07-08T10:16:22.735Z,85920.00
2018-07-08T10:17:22.697Z,82048.00
2018-07-08T10:18:22.733Z,81984.00
2018-07-08T10:19:22.792Z,85952.00
2018-07-08T10:20:22.753Z,86112.00
2018-07-08T10:21:22.812Z,84064.00
2018-07-08T10:22:22.797Z,84928.00
2018-07-08T10:23:22.814Z,84576.00
2018-07-08T10:24:22.832Z,81472.00
2018-07-08T10:25:22.851Z,79520.00
2018-07-08T10:26:22.865Z,79776.00
2018-07-08T10:27:22.890Z,83488.00
2018-07-08T10:28:22.906Z,83200.00
2018-07-08T10:29:22.920Z,82848.00
2018-07-08T10:30:22.997Z,82336.00
2018-07-08T10:31:22.957Z,81824.00
2018-07-08T10:32:22.975Z,82464.00
2018-07-08T10:33:23.002Z,81440.00
2018-07-08T10:34:23.016Z,80256.00
2018-07-08T10:35:23.033Z,80928.00
2018-07-08T10:36:23.054Z,77984.00
2018-07-08T10:37:23.064Z,74944.00
2018-07-08T10:38:23.089Z,73632.00
2018-07-08T10:39:23.100Z,76128.00
2018-07-08T10:40:23.115Z,72288.00
2018-07-08T10:41:23.142Z,68608.00
2018-07-08T10:42:23.156Z,76032.00
2018-07-08T10:43:23.185Z,75840.00
2018-07-08T10:44:23.186Z,77376.00
2018-07-08T10:45:23.206Z,77248.00
2018-07-08T10:46:23.225Z,78784.00
2018-07-08T10:47:23.245Z,78208.00
2018-07-08T10:48:23.257Z,77536.00
2018-07-08T10:49:23.270Z,75904.00
2018-07-08T10:50:23.287Z,77152.00
2018-07-08T10:51:23.304Z,77664.00
2018-07-08T10:52:23.320Z,73312.00
2018-07-08T10:53:23.342Z,74368.00
2018-07-08T10:54:23.362Z,74400.00
2018-07-08T10:55:23.379Z,75072.00
2018-07-08T10:56:23.391Z,75520.00
2018-07-08T10:57:23.408Z,76032.00
2018-07-08T10:58:23.421Z,76544.00
2018-07-08T10:59:23.442Z,74976.00
2018-07-08T11:00:23.459Z,70880.00
2018-07-08T11:01:23.472Z,80960.00
2018-07-08T11:02:23.488Z,85024.00
2018-07-08T11:03:23.504Z,85024.00
2018-07-08T11:04:23.521Z,79584.00
2018-07-08T11:05:23.542Z,83200.00
2018-07-08T11:06:23.558Z,82816.00
2018-07-08T11:07:23.574Z,27168.00
2018-07-08T11:08:23.590Z,93440.00
2018-07-08T11:09:23.601Z,94176.00
2018-07-08T11:10:23.618Z,97280.00
2018-07-08T11:11:23.635Z,88512.00
2018-07-08T11:12:23.650Z,102272.00
2018-07-08T11:13:23.670Z,95744.00
2018-07-08T11:14:23.687Z,101216.00
2018-07-08T11:15:23.698Z,98336.00
2018-07-08T11:16:23.714Z,102656.00
2018-07-08T11:17:23.734Z,104512.00
2018-07-08T11:18:23.753Z,111264.00
2018-07-08T11:19:23.768Z,112288.00
2018-07-08T11:20:23.784Z,114048.00
2018-07-08T11:21:23.794Z,114432.00
2018-07-08T11:22:23.812Z,88128.00
2018-07-08T11:23:23.827Z,14988.00
2018-07-08T11:24:23.843Z,107968.00
2018-07-08T11:25:23.864Z,12004.00
2018-07-08T11:26:23.878Z,8028.00
2018-07-08T11:27:23.897Z,12168.00
2018-07-08T11:28:23.910Z,9852.00
2018-07-08T11:29:23.919Z,9676.00
2018-07-08T11:30:23.933Z,9240.00
2018-07-08T11:31:23.951Z,8780.00
2018-07-08T11:32:23.965Z,8940.00
2018-07-08T11:33:23.974Z,8380.00
2018-07-08T11:34:23.988Z,7888.00
2018-07-08T11:35:24.001Z,8440.00
2018-07-08T11:36:24.011Z,9124.00
2018-07-08T11:37:24.038Z,8816.00
2018-07-08T11:38:24.041Z,8048.00
2018-07-08T11:39:24.054Z,8120.00
2018-07-08T11:40:24.061Z,9300.00
2018-07-08T11:41:24.072Z,9500.00
2018-07-08T11:42:24.078Z,10764.00
2018-07-08T11:43:24.090Z,11020.00
2018-07-08T11:44:24.097Z,10784.00
2018-07-08T11:45:24.112Z,7952.00
2018-07-08T11:46:24.125Z,7188.00
2018-07-08T11:47:24.127Z,7024.00
2018-07-08T11:48:24.134Z,6972.00
2018-07-08T11:49:24.149Z,6760.00
2018-07-08T11:50:24.160Z,6412.00
2018-07-08T11:51:24.163Z,6144.00
2018-07-08T11:52:24.170Z,6020.00
2018-07-08T11:53:24.173Z,5944.00
2018-07-08T11:54:24.181Z,6080.00
2018-07-08T11:55:24.280Z,6428.00
2018-07-08T11:56:24.197Z,6976.00
2018-07-08T11:57:24.207Z,7680.00
2018-07-08T11:58:24.215Z,8380.00
2018-07-08T11:59:24.224Z,8428.00
2018-07-08T12:00:24.235Z,6724.00
2018-07-08T12:01:24.234Z,6588.00
2018-07-08T12:02:24.238Z,6256.00
2018-07-08T12:03:24.248Z,6104.00
2018-07-08T12:04:24.253Z,6180.00
2018-07-08T12:05:24.259Z,6348.00
2018-07-08T12:06:24.316Z,6288.00
2018-07-08T12:07:24.268Z,6280.00
2018-07-08T12:08:24.271Z,6156.00
2018-07-08T12:09:24.283Z,6124.00
2018-07-08T12:10:24.310Z,6144.00
2018-07-08T12:11:24.293Z,6212.00
2018-07-08T12:12:24.298Z,7196.00